Terminal Aerodrome Forecast
Issued by NWS

Home | Current Version | Previous Version | Text Only | Print | Product List | Glossary On
Versions: 1 2 3 4 5 6 7 8 9 10 11 12 13
408
FTUS42 KMLB 240539
TAFSUA
TAF
KSUA 240539Z 2406/2506 16003KT P6SM SCT250
     FM241700 12012G18KT P6SM SCT040 SCT250
     FM250000 14008KT P6SM FEW060 SCT100 SCT250=

USA.gov is the U.S. government's official web portal to all federal, state and local government web resources and services.